createdAt,value
2019-01-29T00:01:45.202Z,16.00
2019-01-29T00:04:15.217Z,15.90
2019-01-29T00:06:45.164Z,15.90
2019-01-29T00:09:15.236Z,15.90
2019-01-29T00:11:47.882Z,15.90
2019-01-29T00:14:19.243Z,15.80
2019-01-29T00:16:49.299Z,15.90
2019-01-29T00:19:19.279Z,15.90
2019-01-29T00:21:49.160Z,15.90
2019-01-29T00:24:19.198Z,16.00
2019-01-29T00:26:49.200Z,15.80
2019-01-29T00:29:19.216Z,15.80
2019-01-29T00:31:49.149Z,15.80
2019-01-29T00:34:19.127Z,15.90
2019-01-29T00:36:49.216Z,15.80
2019-01-29T00:39:19.185Z,15.80
2019-01-29T00:41:49.238Z,15.80
2019-01-29T00:44:19.225Z,15.80
2019-01-29T00:46:49.166Z,15.80
2019-01-29T00:49:19.019Z,15.80
2019-01-29T00:51:49.066Z,15.80
2019-01-29T00:54:19.086Z,15.80
2019-01-29T00:56:49.211Z,15.80
2019-01-29T00:59:19.052Z,15.80
2019-01-29T01:01:49.098Z,15.90
2019-01-29T01:04:19.085Z,15.70
2019-01-29T01:06:49.057Z,15.70
2019-01-29T01:09:19.042Z,15.80
2019-01-29T01:11:48.981Z,15.80
2019-01-29T01:14:18.937Z,15.80
2019-01-29T01:16:48.883Z,15.80
2019-01-29T01:19:18.811Z,15.90
2019-01-29T01:21:48.811Z,15.80
2019-01-29T01:24:18.780Z,15.70
2019-01-29T01:26:48.780Z,15.80
2019-01-29T01:29:18.740Z,15.80
2019-01-29T01:31:48.916Z,15.80
2019-01-29T01:34:19.924Z,15.70
2019-01-29T01:36:49.934Z,15.80
2019-01-29T01:39:19.788Z,15.70
2019-01-29T01:41:49.747Z,15.80
2019-01-29T01:44:19.769Z,15.70
2019-01-29T01:46:49.745Z,15.80
2019-01-29T01:49:19.728Z,15.80
2019-01-29T01:51:49.713Z,15.80
2019-01-29T01:54:19.594Z,15.70
2019-01-29T01:56:49.536Z,15.80
2019-01-29T01:59:19.519Z,15.70
2019-01-29T02:01:49.389Z,15.70
2019-01-29T02:04:19.430Z,15.80
2019-01-29T02:06:49.325Z,15.70
2019-01-29T02:09:19.280Z,15.80
2019-01-29T02:11:49.331Z,15.80
2019-01-29T02:14:19.253Z,15.80
2019-01-29T02:16:49.297Z,15.80
2019-01-29T02:19:20.796Z,15.80
2019-01-29T02:21:50.756Z,15.80
2019-01-29T02:24:20.689Z,15.80
2019-01-29T02:26:50.632Z,15.80
2019-01-29T02:29:20.540Z,15.80
2019-01-29T02:31:50.311Z,15.80
2019-01-29T02:34:20.241Z,15.90
2019-01-29T02:36:50.138Z,15.80
2019-01-29T02:39:20.108Z,15.80
2019-01-29T02:41:50.117Z,15.80
2019-01-29T02:44:19.976Z,15.80
2019-01-29T02:46:50.030Z,15.80
2019-01-29T02:49:19.941Z,15.80
2019-01-29T02:51:49.977Z,15.70
2019-01-29T02:54:19.833Z,15.80
2019-01-29T02:56:49.837Z,15.70
2019-01-29T02:59:19.864Z,15.70
2019-01-29T03:01:49.860Z,15.80
2019-01-29T03:04:19.753Z,15.80
2019-01-29T03:06:49.615Z,15.80
2019-01-29T03:09:19.456Z,15.70
2019-01-29T03:11:49.434Z,15.80
2019-01-29T03:14:19.271Z,15.80
2019-01-29T03:16:50.793Z,15.70
2019-01-29T03:19:20.730Z,15.80
2019-01-29T03:21:50.584Z,15.70
2019-01-29T03:24:22.301Z,15.70
2019-01-29T03:26:52.181Z,15.70
2019-01-29T03:29:22.124Z,15.70
2019-01-29T03:31:51.944Z,15.70
2019-01-29T03:34:21.864Z,15.70
2019-01-29T03:36:51.745Z,15.70
2019-01-29T03:39:21.717Z,15.70
2019-01-29T03:41:52.483Z,15.70
2019-01-29T03:44:22.494Z,15.70
2019-01-29T03:46:52.532Z,15.70
2019-01-29T03:49:22.401Z,15.80
2019-01-29T03:51:52.422Z,15.70
2019-01-29T03:54:22.432Z,15.70
2019-01-29T03:56:52.305Z,15.70
2019-01-29T03:59:22.337Z,15.80
2019-01-29T04:01:52.425Z,15.70
2019-01-29T04:04:22.404Z,15.70
2019-01-29T04:06:54.675Z,15.70
2019-01-29T04:09:24.613Z,15.60
2019-01-29T04:11:54.567Z,15.60
2019-01-29T04:14:24.471Z,15.60
2019-01-29T04:16:54.458Z,15.60
2019-01-29T04:19:24.441Z,15.60
2019-01-29T04:21:54.464Z,15.70
2019-01-29T04:24:24.477Z,15.70
2019-01-29T04:26:54.386Z,15.70
2019-01-29T04:29:24.386Z,15.60
2019-01-29T04:31:54.423Z,16.10
2019-01-29T04:34:25.345Z,16.30
2019-01-29T04:36:55.297Z,16.00
2019-01-29T04:39:25.237Z,15.80
2019-01-29T04:41:55.159Z,15.90
2019-01-29T04:44:25.184Z,16.00
2019-01-29T04:46:55.086Z,16.40
2019-01-29T04:49:25.153Z,16.80
2019-01-29T04:51:55.040Z,17.20
2019-01-29T04:54:25.025Z,16.80
2019-01-29T04:56:54.918Z,16.70
2019-01-29T04:59:24.789Z,17.00
2019-01-29T05:01:54.739Z,16.70
2019-01-29T05:04:24.502Z,16.80
2019-01-29T05:06:54.459Z,17.10
2019-01-29T05:09:25.568Z,18.10
2019-01-29T05:11:59.138Z,17.40
2019-01-29T05:14:30.412Z,17.30
2019-01-29T05:17:00.322Z,17.40
2019-01-29T05:19:30.264Z,17.20
2019-01-29T05:22:00.260Z,17.10
2019-01-29T05:24:30.128Z,17.10
2019-01-29T05:27:00.114Z,17.60
2019-01-29T05:29:30.110Z,17.00
2019-01-29T05:32:00.121Z,17.00
2019-01-29T05:34:30.014Z,16.90
2019-01-29T05:36:59.988Z,16.90
2019-01-29T05:39:30.014Z,17.30
2019-01-29T05:41:59.873Z,16.80
2019-01-29T05:44:29.917Z,16.80
2019-01-29T05:46:59.899Z,16.70
2019-01-29T05:49:29.907Z,16.70
2019-01-29T05:51:59.817Z,16.70
2019-01-29T05:54:29.707Z,16.70
2019-01-29T05:57:01.148Z,16.60
2019-01-29T05:59:31.004Z,16.60
2019-01-29T06:02:01.111Z,16.60
2019-01-29T06:04:30.906Z,16.60
2019-01-29T06:07:00.805Z,16.60
2019-01-29T06:09:31.608Z,16.50
2019-01-29T06:12:01.593Z,16.50
2019-01-29T06:14:32.797Z,16.40
2019-01-29T06:17:02.680Z,16.40
2019-01-29T06:19:32.573Z,16.40
2019-01-29T06:22:03.621Z,16.40
2019-01-29T06:24:33.300Z,16.40
2019-01-29T06:27:04.396Z,16.30
2019-01-29T06:29:34.353Z,16.30
2019-01-29T06:32:04.181Z,16.30
2019-01-29T06:34:34.170Z,16.30
2019-01-29T06:37:04.256Z,16.30
2019-01-29T06:39:34.189Z,16.30
2019-01-29T06:42:04.037Z,16.30
2019-01-29T06:44:36.061Z,16.30
2019-01-29T06:47:05.549Z,16.30
2019-01-29T06:49:37.819Z,16.30
2019-01-29T06:52:07.229Z,16.30
2019-01-29T06:54:37.137Z,16.20
2019-01-29T06:57:06.975Z,16.20
2019-01-29T06:59:37.920Z,16.20
2019-01-29T07:02:08.268Z,16.20
2019-01-29T07:04:38.307Z,16.20
2019-01-29T07:07:08.177Z,16.20
2019-01-29T07:09:38.206Z,16.20
2019-01-29T07:12:08.068Z,16.20
2019-01-29T07:14:38.078Z,16.10
2019-01-29T07:17:17.652Z,16.10
2019-01-29T07:19:50.470Z,16.10
2019-01-29T07:22:20.480Z,16.10
2019-01-29T07:24:50.479Z,16.10
2019-01-29T07:27:20.436Z,16.00
2019-01-29T07:29:50.408Z,16.10
2019-01-29T07:32:20.747Z,16.10
2019-01-29T07:34:50.521Z,16.10
2019-01-29T07:37:22.123Z,16.10
2019-01-29T07:39:52.323Z,15.90
2019-01-29T07:42:22.240Z,15.90
2019-01-29T07:44:52.199Z,15.90
2019-01-29T07:47:22.203Z,15.90
2019-01-29T07:49:52.134Z,15.90
2019-01-29T07:52:21.965Z,15.90
2019-01-29T07:54:53.239Z,15.90
2019-01-29T07:57:22.981Z,15.90
2019-01-29T07:59:52.674Z,15.90
2019-01-29T08:02:24.613Z,15.80
2019-01-29T08:04:55.893Z,15.90
2019-01-29T08:07:25.828Z,15.90
2019-01-29T08:09:55.450Z,15.90
2019-01-29T08:12:25.274Z,15.90
2019-01-29T08:14:54.990Z,15.90
2019-01-29T08:17:24.629Z,15.90
2019-01-29T08:19:54.558Z,15.90
2019-01-29T08:22:24.375Z,15.90
2019-01-29T08:25:01.730Z,15.90
2019-01-29T08:27:25.579Z,16.00
2019-01-29T08:29:56.345Z,15.90
2019-01-29T08:32:26.178Z,15.60
2019-01-29T08:34:55.884Z,15.90
2019-01-29T08:37:25.643Z,15.90
2019-01-29T08:39:55.546Z,15.90
2019-01-29T08:42:25.390Z,15.90
2019-01-29T08:44:55.086Z,15.90
2019-01-29T08:47:24.735Z,15.90
2019-01-29T08:49:54.456Z,15.90
2019-01-29T08:52:24.275Z,15.90
2019-01-29T08:54:54.117Z,15.90
2019-01-29T08:57:23.843Z,16.10
2019-01-29T08:59:53.560Z,15.90
2019-01-29T09:02:25.113Z,15.90
2019-01-29T09:04:54.768Z,15.90
2019-01-29T09:07:24.502Z,15.90
2019-01-29T09:09:54.325Z,15.90
2019-01-29T09:12:24.263Z,15.90
2019-01-29T09:14:53.973Z,15.90
2019-01-29T09:17:23.914Z,15.90
2019-01-29T09:19:54.717Z,15.90
2019-01-29T09:22:24.593Z,15.90
2019-01-29T09:24:54.513Z,15.90
2019-01-29T09:27:24.461Z,16.00
2019-01-29T09:29:54.379Z,15.90
2019-01-29T09:32:24.122Z,15.90
2019-01-29T09:34:54.046Z,15.90
2019-01-29T09:37:23.851Z,15.90
2019-01-29T09:39:53.698Z,15.90
2019-01-29T09:42:25.165Z,15.90
2019-01-29T09:44:55.094Z,15.90
2019-01-29T09:47:24.936Z,15.90
2019-01-29T09:49:54.718Z,15.90
2019-01-29T09:52:24.594Z,15.90
2019-01-29T09:54:54.206Z,15.90
2019-01-29T09:57:23.943Z,15.90
2019-01-29T09:59:53.768Z,15.90
2019-01-29T10:02:23.594Z,15.90
2019-01-29T10:04:53.439Z,15.90
2019-01-29T10:07:23.265Z,16.40
2019-01-29T10:09:53.074Z,15.90
2019-01-29T10:12:22.700Z,16.00
2019-01-29T10:14:52.327Z,15.90
2019-01-29T10:17:22.357Z,16.10
2019-01-29T10:19:52.174Z,15.90
2019-01-29T10:22:21.818Z,15.90
2019-01-29T10:24:51.648Z,15.90
2019-01-29T10:27:21.487Z,16.00
2019-01-29T10:29:51.408Z,15.90
2019-01-29T10:32:20.938Z,15.90
2019-01-29T10:34:50.640Z,15.90
2019-01-29T10:37:20.298Z,15.90
2019-01-29T10:39:50.013Z,15.80
2019-01-29T10:42:19.958Z,15.80
2019-01-29T10:44:49.676Z,15.80
2019-01-29T10:47:19.597Z,15.80
2019-01-29T10:49:49.427Z,15.80
2019-01-29T10:52:20.364Z,16.20
2019-01-29T10:54:50.026Z,15.80
2019-01-29T10:57:19.831Z,15.80
2019-01-29T10:59:49.694Z,15.80
2019-01-29T11:02:19.394Z,15.80
2019-01-29T11:04:49.121Z,15.70
2019-01-29T11:07:20.910Z,15.70
2019-01-29T11:09:50.320Z,15.80
2019-01-29T11:12:21.845Z,15.80
2019-01-29T11:14:51.608Z,15.70
2019-01-29T11:17:21.353Z,15.70
2019-01-29T11:19:51.087Z,16.30
2019-01-29T11:22:20.818Z,15.80
2019-01-29T11:24:51.432Z,15.80
2019-01-29T11:27:21.282Z,15.80
2019-01-29T11:29:51.235Z,15.80
2019-01-29T11:32:20.935Z,15.90
2019-01-29T11:34:50.773Z,15.80
2019-01-29T11:37:20.584Z,15.90
2019-01-29T11:39:50.521Z,15.90
2019-01-29T11:42:20.141Z,15.90
2019-01-29T11:44:49.662Z,15.40
2019-01-29T11:47:21.412Z,16.50
2019-01-29T11:49:50.808Z,15.80
2019-01-29T11:52:20.694Z,15.80
2019-01-29T11:54:50.547Z,15.90
2019-01-29T11:57:20.450Z,16.00
2019-01-29T11:59:50.178Z,15.90
2019-01-29T12:02:28.020Z,15.90
2019-01-29T12:04:51.482Z,16.60
2019-01-29T12:07:21.405Z,16.60
2019-01-29T12:09:51.042Z,16.50
2019-01-29T12:12:20.861Z,16.00
2019-01-29T12:14:50.811Z,16.00
2019-01-29T12:17:20.589Z,15.50
2019-01-29T12:19:50.354Z,16.10
2019-01-29T12:22:20.089Z,16.00
2019-01-29T12:24:49.930Z,16.30
2019-01-29T12:27:19.841Z,16.10
2019-01-29T12:29:49.571Z,16.00
2019-01-29T12:32:19.495Z,16.40
2019-01-29T12:34:49.223Z,16.10
2019-01-29T12:37:19.752Z,16.10
2019-01-29T12:39:49.709Z,16.10
2019-01-29T12:42:19.622Z,16.00
2019-01-29T12:44:50.506Z,16.10
2019-01-29T12:47:20.113Z,16.10
2019-01-29T12:49:49.952Z,16.10
2019-01-29T12:52:47.541Z,16.10
2019-01-29T12:55:17.257Z,16.10
2019-01-29T12:57:46.827Z,16.10
2019-01-29T13:00:17.317Z,16.20
2019-01-29T13:02:47.016Z,16.10
2019-01-29T13:05:16.746Z,16.20
2019-01-29T13:07:46.487Z,16.20
2019-01-29T13:10:18.925Z,16.20
2019-01-29T13:12:48.698Z,16.20
2019-01-29T13:15:20.885Z,16.20
2019-01-29T13:17:50.799Z,16.20
2019-01-29T13:20:20.342Z,16.20
2019-01-29T13:22:50.171Z,16.10
2019-01-29T13:25:20.097Z,16.20
2019-01-29T13:27:49.814Z,16.20
2019-01-29T13:30:22.697Z,16.20
2019-01-29T13:32:52.455Z,16.20
2019-01-29T13:35:22.600Z,16.20
2019-01-29T13:37:53.772Z,16.20
2019-01-29T13:40:23.591Z,16.30
2019-01-29T13:42:54.738Z,16.20
2019-01-29T13:45:24.664Z,16.80
2019-01-29T13:47:54.471Z,16.30
2019-01-29T13:50:30.369Z,16.30
2019-01-29T13:53:00.063Z,16.20
2019-01-29T13:55:29.815Z,16.30
2019-01-29T13:57:59.647Z,16.20
2019-01-29T14:00:31.225Z,16.40
2019-01-29T14:03:01.178Z,16.30
2019-01-29T14:05:30.776Z,16.40
2019-01-29T14:08:00.698Z,16.30
2019-01-29T14:10:30.546Z,16.40
2019-01-29T14:13:00.226Z,16.40
2019-01-29T14:15:34.315Z,16.40
2019-01-29T14:18:03.989Z,16.40
2019-01-29T14:20:35.828Z,16.40
2019-01-29T14:23:07.762Z,16.30
2019-01-29T14:25:37.603Z,16.40
2019-01-29T14:28:07.319Z,16.40
2019-01-29T14:30:37.239Z,16.40
2019-01-29T14:33:07.588Z,16.30
2019-01-29T14:35:37.218Z,16.30
2019-01-29T14:38:46.623Z,16.30
2019-01-29T14:41:17.715Z,16.40
2019-01-29T14:43:52.665Z,16.40
2019-01-29T14:46:22.391Z,16.40
2019-01-29T14:48:52.326Z,16.40
2019-01-29T14:51:21.992Z,16.40
2019-01-29T14:53:51.787Z,16.40
2019-01-29T14:56:21.598Z,16.40
2019-01-29T14:58:51.236Z,17.00
2019-01-29T15:01:20.940Z,16.40
2019-01-29T15:03:50.588Z,16.50
2019-01-29T15:06:20.300Z,16.40
2019-01-29T15:08:50.143Z,16.50
2019-01-29T15:11:19.857Z,16.50
2019-01-29T15:13:49.708Z,16.60
2019-01-29T15:16:55.512Z,17.00
2019-01-29T15:19:26.944Z,16.50
2019-01-29T15:21:56.621Z,16.50
2019-01-29T15:24:27.464Z,16.50
2019-01-29T15:27:05.121Z,16.50
2019-01-29T15:29:28.680Z,16.50
2019-01-29T15:31:58.314Z,16.60
2019-01-29T15:34:28.254Z,16.60
2019-01-29T15:36:57.941Z,16.60
2019-01-29T15:39:27.694Z,16.60
2019-01-29T15:41:57.625Z,17.10
2019-01-29T15:44:27.367Z,16.60
2019-01-29T15:46:57.280Z,16.60
2019-01-29T15:49:27.008Z,16.60
2019-01-29T15:51:58.314Z,16.60
2019-01-29T15:54:28.100Z,16.60
2019-01-29T15:56:57.912Z,16.60
2019-01-29T15:59:29.350Z,16.60
2019-01-29T16:01:59.127Z,16.60
2019-01-29T16:04:28.966Z,16.60
2019-01-29T16:06:58.684Z,16.60
2019-01-29T16:09:28.632Z,16.60
2019-01-29T16:11:58.544Z,17.20
2019-01-29T16:14:28.281Z,16.60
2019-01-29T16:16:57.996Z,16.60
2019-01-29T16:19:29.402Z,16.70
2019-01-29T16:21:59.070Z,16.70
2019-01-29T16:24:28.726Z,16.60
2019-01-29T16:27:06.465Z,16.60
2019-01-29T16:29:30.009Z,16.60
2019-01-29T16:31:59.728Z,16.70
2019-01-29T16:34:29.576Z,16.70
2019-01-29T16:36:59.386Z,16.60
2019-01-29T16:39:29.140Z,16.70
2019-01-29T16:41:58.966Z,16.60
2019-01-29T16:44:31.541Z,16.60
2019-01-29T16:47:01.261Z,16.60
2019-01-29T16:49:31.118Z,16.70
2019-01-29T16:52:00.941Z,17.20
2019-01-29T16:54:30.676Z,16.70
2019-01-29T16:57:00.297Z,16.80
2019-01-29T16:59:30.115Z,16.70
2019-01-29T17:01:59.945Z,16.70
2019-01-29T17:04:29.879Z,16.70
2019-01-29T17:06:59.809Z,16.70
2019-01-29T17:09:29.547Z,16.70
2019-01-29T17:11:59.253Z,16.70
2019-01-29T17:14:29.076Z,16.70
2019-01-29T17:16:58.816Z,17.20
2019-01-29T17:19:28.563Z,16.70
2019-01-29T17:21:58.174Z,16.70
2019-01-29T17:24:28.001Z,16.70
2019-01-29T17:26:57.707Z,16.70
2019-01-29T17:29:27.563Z,20.30
2019-01-29T17:31:57.285Z,18.80
2019-01-29T17:34:26.811Z,19.60
2019-01-29T17:36:56.631Z,19.20
2019-01-29T17:39:26.580Z,19.40
2019-01-29T17:41:56.280Z,19.20
2019-01-29T17:44:26.010Z,19.40
2019-01-29T17:46:55.944Z,19.30
2019-01-29T17:49:25.768Z,19.20
2019-01-29T17:51:55.606Z,19.60
2019-01-29T17:54:25.344Z,19.20
2019-01-29T17:56:56.062Z,21.00
2019-01-29T17:59:26.022Z,20.00
2019-01-29T18:01:55.946Z,19.90
2019-01-29T18:04:25.667Z,20.00
2019-01-29T18:06:55.393Z,20.00
2019-01-29T18:09:25.137Z,20.40
2019-01-29T18:11:56.908Z,20.10
2019-01-29T18:14:25.904Z,20.10
2019-01-29T18:16:55.753Z,20.20
2019-01-29T18:19:25.566Z,20.10
2019-01-29T18:21:57.021Z,20.20
2019-01-29T18:24:26.764Z,20.20
2019-01-29T18:26:57.377Z,20.30
2019-01-29T18:29:27.278Z,20.50
2019-01-29T18:31:57.080Z,20.30
2019-01-29T18:34:26.931Z,20.30
2019-01-29T18:36:56.857Z,20.30
2019-01-29T18:39:29.155Z,20.40
2019-01-29T18:41:59.153Z,20.40
2019-01-29T18:44:28.995Z,20.50
2019-01-29T18:47:01.047Z,20.60
2019-01-29T18:49:30.801Z,20.60
2019-01-29T18:52:00.740Z,20.70
2019-01-29T18:54:30.458Z,20.50
2019-01-29T18:57:00.380Z,20.50
2019-01-29T18:59:29.923Z,20.80
2019-01-29T19:01:59.831Z,21.10
2019-01-29T19:04:31.376Z,20.60
2019-01-29T19:07:01.235Z,20.90
2019-01-29T19:09:31.074Z,20.50
2019-01-29T19:12:00.989Z,20.50
2019-01-29T19:14:30.715Z,20.50
2019-01-29T19:17:01.937Z,20.60
2019-01-29T19:19:31.509Z,21.00
2019-01-29T19:22:01.340Z,20.80
2019-01-29T19:24:31.163Z,20.80
2019-01-29T19:27:00.877Z,20.90
2019-01-29T19:29:30.638Z,20.40
2019-01-29T19:32:02.706Z,20.80
2019-01-29T19:34:32.630Z,20.80
2019-01-29T19:37:03.177Z,20.90
2019-01-29T19:39:33.118Z,21.30
2019-01-29T19:42:03.054Z,20.70
2019-01-29T19:44:32.917Z,20.60
2019-01-29T19:47:04.960Z,20.80
2019-01-29T19:49:34.795Z,20.90
2019-01-29T19:52:04.639Z,21.40
2019-01-29T19:54:38.162Z,21.10
2019-01-29T19:57:08.070Z,20.70
2019-01-29T19:59:37.871Z,20.90
2019-01-29T20:02:09.922Z,20.90
2019-01-29T20:04:41.686Z,20.70
2019-01-29T20:07:13.702Z,20.80
2019-01-29T20:09:43.438Z,20.90
2019-01-29T20:12:13.389Z,20.80
2019-01-29T20:14:43.181Z,20.50
2019-01-29T20:17:12.713Z,20.70
2019-01-29T20:19:42.548Z,20.70
2019-01-29T20:22:14.445Z,20.60
2019-01-29T20:24:46.250Z,20.70
2019-01-29T20:27:18.530Z,20.70
2019-01-29T20:29:49.420Z,20.80
2019-01-29T20:32:19.267Z,21.30
2019-01-29T20:34:49.029Z,20.40
2019-01-29T20:37:18.825Z,20.30
2019-01-29T20:39:48.682Z,20.10
2019-01-29T20:42:18.505Z,20.10
2019-01-29T20:44:49.229Z,20.40
2019-01-29T20:47:18.765Z,20.20
2019-01-29T20:49:48.667Z,20.60
2019-01-29T20:52:18.424Z,20.20
2019-01-29T20:54:48.254Z,20.00
2019-01-29T20:57:18.195Z,20.00
2019-01-29T20:59:49.870Z,20.00
2019-01-29T21:02:19.398Z,20.00
2019-01-29T21:04:50.059Z,20.10
2019-01-29T21:07:19.918Z,19.90
2019-01-29T21:09:49.675Z,19.80
2019-01-29T21:12:20.111Z,20.10
2019-01-29T21:14:49.968Z,19.90
2019-01-29T21:17:19.703Z,20.00
2019-01-29T21:19:49.530Z,20.10
2019-01-29T21:22:19.253Z,20.10
2019-01-29T21:24:49.066Z,20.10
2019-01-29T21:27:18.806Z,20.20
2019-01-29T21:29:48.536Z,20.10
2019-01-29T21:32:18.396Z,20.10
2019-01-29T21:34:48.207Z,20.20
2019-01-29T21:37:18.011Z,20.10
2019-01-29T21:39:47.647Z,20.20
2019-01-29T21:42:17.477Z,20.10
2019-01-29T21:44:48.104Z,20.10
2019-01-29T21:47:17.830Z,20.10
2019-01-29T21:49:49.610Z,20.00
2019-01-29T21:52:19.462Z,20.00
2019-01-29T21:54:49.265Z,20.30
2019-01-29T21:57:20.608Z,19.90
2019-01-29T21:59:50.455Z,19.90
2019-01-29T22:02:20.302Z,19.90
2019-01-29T22:04:49.937Z,19.90
2019-01-29T22:07:19.558Z,19.80
2019-01-29T22:09:49.406Z,19.80
2019-01-29T22:12:19.319Z,19.80
2019-01-29T22:14:48.925Z,19.70
2019-01-29T22:17:18.774Z,19.80
2019-01-29T22:19:48.593Z,19.80
2019-01-29T22:22:20.341Z,19.80
2019-01-29T22:24:49.877Z,19.80
2019-01-29T22:27:19.725Z,19.70
2019-01-29T22:29:49.551Z,19.70
2019-01-29T22:32:19.245Z,19.70
2019-01-29T22:34:49.095Z,19.70
2019-01-29T22:37:18.932Z,19.60
2019-01-29T22:39:48.771Z,19.30
2019-01-29T22:42:18.617Z,19.10
2019-01-29T22:44:48.357Z,19.70
2019-01-29T22:47:18.156Z,19.60
2019-01-29T22:49:47.773Z,19.50
2019-01-29T22:52:17.603Z,19.70
2019-01-29T22:54:47.457Z,19.70
2019-01-29T22:57:17.630Z,19.60
2019-01-29T22:59:47.390Z,19.60
2019-01-29T23:02:17.331Z,19.60
2019-01-29T23:04:48.081Z,19.60
2019-01-29T23:07:20.580Z,19.70
2019-01-29T23:09:50.400Z,19.70
2019-01-29T23:12:21.925Z,19.60
2019-01-29T23:14:51.687Z,19.70
2019-01-29T23:17:23.125Z,19.60
2019-01-29T23:19:52.890Z,19.50
2019-01-29T23:22:22.608Z,19.50
2019-01-29T23:24:52.459Z,19.50
2019-01-29T23:27:22.372Z,19.50
2019-01-29T23:29:52.208Z,19.50
2019-01-29T23:32:22.037Z,19.40
2019-01-29T23:34:51.767Z,19.50
2019-01-29T23:37:21.584Z,19.50
2019-01-29T23:39:51.375Z,19.50
2019-01-29T23:42:21.049Z,19.50
2019-01-29T23:44:50.859Z,19.50
2019-01-29T23:47:21.918Z,19.50
2019-01-29T23:49:53.364Z,19.50
2019-01-29T23:52:23.145Z,19.50
2019-01-29T23:54:52.947Z,20.00
2019-01-29T23:57:22.493Z,19.50
2019-01-29T23:59:53.852Z,19.50
